METAR OBSERVATIONS
Looking Back 6 hours

  • KPBF 270953Z AUTO 21011KT 10SM OVC014 24/22 A2988 RMK AO2 SLP115 T02390217 =
  • KPBF 270943Z AUTO 21010KT 10SM OVC014 24/22 A2988 RMK AO2 T02390217 =
  • KPBF 270900Z AUTO 20011KT 10SM BKN016 OVC060 24/22 A2987 RMK AO2 T02390217 =
  • KPBF 270853Z AUTO 20010KT 10SM SCT016 OVC060 24/22 A2987 RMK AO2 SLP112 T02390217 55011 =
  • KPBF 270753Z AUTO 20010KT 10SM SCT060 24/22 A2987 RMK AO2 SLP111 T02390217 =
  • KPBF 270653Z AUTO 19011KT 10SM SCT060 24/22 A2988 RMK AO2 SLP115 T02440217 =
  • KPBF 270553Z AUTO 18008KT 10SM OVC060 24/22 A2990 RMK AO2 SLP123 T02440217 10272 20244 402830189 53008 =
  • KPBF 270453Z AUTO 17007KT 10SM OVC055 25/22 A2989 RMK AO2 SLP117 T02500217 =
    ________________________________________